IGO661 VOTV-VOBL
Flight info
| Callsign | IGO661 |
|---|---|
| Flight time | N/A |
| Altitude | 35000 |
| Route | UGABA DCT RUBOX |
| Aircraft | A320/M-SDE3FGHIRWY/LB1 |
Departure
| Time | 2026-04-23 10:11 |
|---|---|
| Airport | Thiruvananthapuram International Airport (VOTV) |
Arrival
| Time | N/A |
|---|---|
| Airport | Kempegowda International Airport Bengaluru (VOBL) |
| Time | Latitude | Longitude | Altitude | Speed | Heading |
|---|---|---|---|---|---|
| 2026-04-23 10:04 | 8.47900 | 76.91861 | 30 ft | 4 kts | 169° |
| 2026-04-23 10:04 | 8.47923 | 76.91853 | 31 ft | 4 kts | 129° |
| 2026-04-23 10:04 | 8.47929 | 76.91842 | 32 ft | 1 kts | 97° |
| 2026-04-23 10:04 | 8.47929 | 76.91841 | 30 ft | 0 kts | 97° |
| 2026-04-23 10:06 | 8.47928 | 76.91847 | 31 ft | 2 kts | 97° |
| 2026-04-23 10:06 | 8.47926 | 76.91874 | 31 ft | 5 kts | 95° |
| 2026-04-23 10:07 | 8.47922 | 76.91918 | 33 ft | 8 kts | 96° |
| 2026-04-23 10:07 | 8.47916 | 76.91979 | 33 ft | 10 kts | 96° |
| 2026-04-23 10:07 | 8.47907 | 76.92055 | 33 ft | 12 kts | 96° |
| 2026-04-23 10:07 | 8.47897 | 76.92143 | 34 ft | 14 kts | 96° |
| 2026-04-23 10:08 | 8.47888 | 76.92243 | 35 ft | 15 kts | 96° |
| 2026-04-23 10:08 | 8.47851 | 76.92347 | 35 ft | 17 kts | 134° |
| 2026-04-23 10:08 | 8.47763 | 76.92434 | 34 ft | 19 kts | 136° |
| 2026-04-23 10:09 | 8.47541 | 76.92649 | 34 ft | 25 kts | 136° |
| 2026-04-23 10:09 | 8.47408 | 76.92779 | 33 ft | 28 kts | 136° |
| 2026-04-23 10:09 | 8.47285 | 76.92911 | 34 ft | 25 kts | 109° |
| 2026-04-23 10:09 | 8.47220 | 76.93044 | 33 ft | 18 kts | 138° |
| 2026-04-23 10:10 | 8.47165 | 76.93022 | 34 ft | 12 kts | 296° |
| 2026-04-23 10:10 | 8.47178 | 76.93004 | 34 ft | 0 kts | 311° |
| 2026-04-23 10:10 | 8.47184 | 76.92998 | 34 ft | 3 kts | 314° |
| 2026-04-23 10:10 | 8.47240 | 76.92941 | 34 ft | 37 kts | 315° |
| 2026-04-23 10:11 | 8.47611 | 76.92581 | 34 ft | 107 kts | 316° |
| 2026-04-23 10:11 | 8.48275 | 76.91931 | 34 ft | 156 kts | 316° |
| 2026-04-23 10:11 | 8.49114 | 76.91133 | 490 ft | 167 kts | 316° |
| 2026-04-23 10:11 | 8.49966 | 76.90338 | 1172 ft | 169 kts | 321° |
| 2026-04-23 10:12 | 8.51125 | 76.89912 | 1534 ft | 193 kts | 1° |
| 2026-04-23 10:12 | 8.52532 | 76.90080 | 1810 ft | 215 kts | 6° |
| 2026-04-23 10:12 | 8.54108 | 76.90259 | 2187 ft | 241 kts | 6° |
| 2026-04-23 10:12 | 8.55857 | 76.90439 | 2624 ft | 265 kts | 5° |
| 2026-04-23 10:13 | 8.57722 | 76.90629 | 3404 ft | 272 kts | 6° |
| 2026-04-23 10:13 | 8.59607 | 76.90825 | 4415 ft | 272 kts | 8° |
| 2026-04-23 10:13 | 8.60851 | 76.90955 | 5090 ft | 270 kts | 8° |
| 2026-04-23 10:13 | 8.63347 | 76.91217 | 6407 ft | 270 kts | 8° |
| 2026-04-23 10:14 | 8.64588 | 76.91348 | 6981 ft | 272 kts | 8° |
| 2026-04-23 10:14 | 8.66478 | 76.91548 | 7833 ft | 275 kts | 8° |
| 2026-04-23 10:14 | 8.68395 | 76.91753 | 8632 ft | 279 kts | 8° |
| 2026-04-23 10:14 | 8.70343 | 76.91965 | 9441 ft | 284 kts | 8° |
| 2026-04-23 10:15 | 8.73036 | 76.92257 | 10081 ft | 305 kts | 8° |
| 2026-04-23 10:15 | 8.74464 | 76.92412 | 10232 ft | 319 kts | 8° |
| 2026-04-23 10:15 | 8.76718 | 76.92654 | 10725 ft | 329 kts | 8° |
| 2026-04-23 10:15 | 8.79012 | 76.92897 | 11374 ft | 334 kts | 8° |
| 2026-04-23 10:16 | 8.81335 | 76.93143 | 12007 ft | 338 kts | 8° |
| 2026-04-23 10:16 | 8.83685 | 76.93394 | 12658 ft | 342 kts | 8° |
| 2026-04-23 10:16 | 8.86068 | 76.93647 | 13288 ft | 346 kts | 8° |
| 2026-04-23 10:16 | 8.88467 | 76.93901 | 13921 ft | 348 kts | 8° |
| 2026-04-23 10:17 | 8.90880 | 76.94155 | 14487 ft | 350 kts | 8° |
| 2026-04-23 10:17 | 8.93320 | 76.94411 | 15058 ft | 354 kts | 7° |
| 2026-04-23 10:17 | 8.95783 | 76.94673 | 15595 ft | 358 kts | 7° |
| 2026-04-23 10:17 | 8.98268 | 76.94940 | 16135 ft | 361 kts | 7° |
| 2026-04-23 10:18 | 9.00773 | 76.95210 | 16713 ft | 363 kts | 7° |
| 2026-04-23 10:18 | 9.03303 | 76.95483 | 17204 ft | 368 kts | 7° |
| 2026-04-23 10:18 | 9.05868 | 76.95759 | 17715 ft | 372 kts | 6° |
| 2026-04-23 10:18 | 9.08457 | 76.96036 | 18216 ft | 376 kts | 6° |
| 2026-04-23 10:19 | 9.11071 | 76.96316 | 18648 ft | 380 kts | 6° |
| 2026-04-23 10:19 | 9.13711 | 76.96600 | 19077 ft | 384 kts | 6° |
| 2026-04-23 10:19 | 9.16379 | 76.96884 | 19541 ft | 387 kts | 6° |
| 2026-04-23 10:19 | 9.19073 | 76.97170 | 19999 ft | 390 kts | 6° |
| 2026-04-23 10:20 | 9.21784 | 76.97459 | 20447 ft | 394 kts | 6° |
| 2026-04-23 10:20 | 9.24526 | 76.97752 | 20887 ft | 398 kts | 5° |
| 2026-04-23 10:20 | 9.27291 | 76.98048 | 21318 ft | 402 kts | 5° |
| 2026-04-23 10:20 | 9.30087 | 76.98347 | 21757 ft | 405 kts | 5° |
| 2026-04-23 10:21 | 9.32907 | 76.98652 | 22154 ft | 410 kts | 5° |
| 2026-04-23 10:21 | 9.35752 | 76.98962 | 22596 ft | 413 kts | 5° |
| 2026-04-23 10:21 | 9.38620 | 76.99272 | 23054 ft | 416 kts | 5° |
| 2026-04-23 10:21 | 9.41509 | 76.99579 | 23458 ft | 419 kts | 5° |
| 2026-04-23 10:22 | 9.44421 | 76.99888 | 23816 ft | 423 kts | 5° |
| 2026-04-23 10:22 | 9.47359 | 77.00199 | 24173 ft | 426 kts | 5° |
| 2026-04-23 10:22 | 9.50312 | 77.00514 | 24526 ft | 429 kts | 5° |
| 2026-04-23 10:22 | 9.53292 | 77.00832 | 24871 ft | 432 kts | 5° |
| 2026-04-23 10:23 | 9.56294 | 77.01153 | 25219 ft | 436 kts | 5° |
| 2026-04-23 10:23 | 9.59322 | 77.01480 | 25571 ft | 439 kts | 5° |
| 2026-04-23 10:23 | 9.62371 | 77.01812 | 25893 ft | 443 kts | 4° |
| 2026-04-23 10:23 | 9.65446 | 77.02143 | 26224 ft | 446 kts | 4° |
| 2026-04-23 10:24 | 9.68544 | 77.02477 | 26572 ft | 449 kts | 5° |
| 2026-04-23 10:24 | 9.71663 | 77.02811 | 26892 ft | 452 kts | 4° |
| 2026-04-23 10:24 | 9.74799 | 77.03146 | 27238 ft | 455 kts | 4° |
| 2026-04-23 10:24 | 9.77963 | 77.03483 | 27553 ft | 458 kts | 4° |
| 2026-04-23 10:25 | 9.81146 | 77.03823 | 27876 ft | 462 kts | 4° |
| 2026-04-23 10:25 | 9.84355 | 77.04168 | 28197 ft | 465 kts | 4° |
| 2026-04-23 10:25 | 9.87540 | 77.04511 | 28527 ft | 468 kts | 4° |
| 2026-04-23 10:25 | 9.90786 | 77.04860 | 28871 ft | 471 kts | 4° |
| 2026-04-23 10:26 | 9.94055 | 77.05213 | 29198 ft | 474 kts | 4° |
| 2026-04-23 10:26 | 9.97349 | 77.05568 | 29516 ft | 478 kts | 4° |
| 2026-04-23 10:26 | 10.00667 | 77.05922 | 29815 ft | 482 kts | 4° |
| 2026-04-23 10:26 | 10.04009 | 77.06278 | 30115 ft | 485 kts | 4° |
| 2026-04-23 10:27 | 10.07376 | 77.06639 | 30397 ft | 488 kts | 4° |
| 2026-04-23 10:27 | 10.10764 | 77.07004 | 30675 ft | 491 kts | 4° |
| 2026-04-23 10:27 | 10.18155 | 77.07805 | 31286 ft | 497 kts | 5° |
| 2026-04-23 10:28 | 10.21607 | 77.08178 | 31583 ft | 500 kts | 4° |
| 2026-04-23 10:28 | 10.25080 | 77.08551 | 31913 ft | 502 kts | 4° |
| 2026-04-23 10:28 | 10.28556 | 77.08926 | 32322 ft | 502 kts | 5° |
| 2026-04-23 10:28 | 10.32021 | 77.09298 | 32706 ft | 502 kts | 4° |
| 2026-04-23 10:29 | 10.35504 | 77.09669 | 33065 ft | 503 kts | 4° |
| 2026-04-23 10:29 | 10.38992 | 77.10041 | 33465 ft | 504 kts | 5° |
| 2026-04-23 10:29 | 10.42475 | 77.10415 | 33868 ft | 504 kts | 5° |
| 2026-04-23 10:29 | 10.45962 | 77.10793 | 34210 ft | 504 kts | 5° |
| 2026-04-23 10:30 | 10.49442 | 77.11173 | 34589 ft | 503 kts | 5° |
| 2026-04-23 10:30 | 10.52927 | 77.11554 | 34774 ft | 503 kts | 5° |
| 2026-04-23 10:30 | 10.59807 | 77.12299 | 34819 ft | 493 kts | 5° |
| 2026-04-23 10:31 | 10.66623 | 77.13033 | 34812 ft | 492 kts | 4° |
| 2026-04-23 10:31 | 10.73428 | 77.13770 | 34816 ft | 492 kts | 4° |
| 2026-04-23 10:32 | 10.80240 | 77.14506 | 34824 ft | 492 kts | 4° |
| 2026-04-23 10:32 | 10.87057 | 77.15243 | 34828 ft | 493 kts | 4° |
| 2026-04-23 10:33 | 10.93878 | 77.15980 | 34843 ft | 493 kts | 4° |
| 2026-04-23 10:33 | 11.00705 | 77.16719 | 34844 ft | 493 kts | 4° |
| 2026-04-23 10:34 | 11.07531 | 77.17464 | 34855 ft | 494 kts | 4° |
| 2026-04-23 10:34 | 11.14365 | 77.18205 | 34852 ft | 494 kts | 4° |
| 2026-04-23 10:35 | 11.21206 | 77.18939 | 34847 ft | 494 kts | 4° |
| 2026-04-23 10:35 | 11.28048 | 77.19677 | 34847 ft | 495 kts | 4° |
| 2026-04-23 10:36 | 11.34890 | 77.20419 | 34863 ft | 495 kts | 4° |
| 2026-04-23 10:36 | 11.40573 | 77.21034 | 34606 ft | 492 kts | 4° |
| 2026-04-23 10:37 | 11.43981 | 77.21401 | 34043 ft | 493 kts | 4° |
| 2026-04-23 10:37 | 11.47380 | 77.21769 | 33601 ft | 489 kts | 4° |
| 2026-04-23 10:37 | 11.50751 | 77.22136 | 33139 ft | 485 kts | 4° |
| 2026-04-23 10:37 | 11.54140 | 77.22510 | 32693 ft | 481 kts | 4° |
| 2026-04-23 10:38 | 11.57453 | 77.22875 | 32248 ft | 477 kts | 4° |
| 2026-04-23 10:38 | 11.60737 | 77.23235 | 31764 ft | 474 kts | 4° |
| 2026-04-23 10:38 | 11.63962 | 77.23587 | 31289 ft | 471 kts | 4° |
| 2026-04-23 10:38 | 11.67215 | 77.23942 | 30798 ft | 468 kts | 3° |
| 2026-04-23 10:39 | 11.70442 | 77.24292 | 30317 ft | 465 kts | 3° |
| 2026-04-23 10:39 | 11.73648 | 77.24637 | 29827 ft | 462 kts | 3° |
| 2026-04-23 10:39 | 11.76835 | 77.24980 | 29287 ft | 459 kts | 2° |
| 2026-04-23 10:39 | 11.80003 | 77.25323 | 28739 ft | 456 kts | 3° |
| 2026-04-23 10:40 | 11.83145 | 77.25665 | 28205 ft | 453 kts | 3° |
| 2026-04-23 10:40 | 11.86268 | 77.26005 | 27678 ft | 449 kts | 3° |
| 2026-04-23 10:40 | 11.89363 | 77.26344 | 27159 ft | 446 kts | 3° |
| 2026-04-23 10:40 | 11.92438 | 77.26679 | 26662 ft | 443 kts | 3° |
| 2026-04-23 10:41 | 11.95488 | 77.27012 | 26162 ft | 439 kts | 4° |
| 2026-04-23 10:41 | 11.98517 | 77.27343 | 25674 ft | 436 kts | 4° |
| 2026-04-23 10:41 | 12.01527 | 77.27672 | 25190 ft | 433 kts | 4° |
| 2026-04-23 10:41 | 12.04513 | 77.27993 | 24719 ft | 430 kts | 4° |
| 2026-04-23 10:42 | 12.07479 | 77.28307 | 24252 ft | 427 kts | 4° |
| 2026-04-23 10:42 | 12.10427 | 77.28612 | 23794 ft | 424 kts | 4° |
| 2026-04-23 10:42 | 12.13351 | 77.28914 | 23320 ft | 421 kts | 4° |
| 2026-04-23 10:42 | 12.16262 | 77.29211 | 22779 ft | 419 kts | 4° |
| 2026-04-23 10:43 | 12.19151 | 77.29501 | 22238 ft | 416 kts | 4° |
| 2026-04-23 10:43 | 12.22023 | 77.29788 | 21718 ft | 413 kts | 4° |
| 2026-04-23 10:43 | 12.24874 | 77.30065 | 21202 ft | 410 kts | 4° |
| 2026-04-23 10:43 | 12.27705 | 77.30347 | 20696 ft | 407 kts | 4° |
| 2026-04-23 10:44 | 12.30508 | 77.30625 | 20201 ft | 403 kts | 3° |
| 2026-04-23 10:44 | 12.33291 | 77.30888 | 19726 ft | 399 kts | 5° |
| 2026-04-23 10:44 | 12.36042 | 77.31149 | 19267 ft | 395 kts | 4° |
| 2026-04-23 10:44 | 12.38763 | 77.31403 | 18811 ft | 391 kts | 4° |
| 2026-04-23 10:45 | 12.41457 | 77.31632 | 18372 ft | 386 kts | 4° |
| 2026-04-23 10:45 | 12.44116 | 77.31851 | 17890 ft | 381 kts | 4° |
| 2026-04-23 10:45 | 12.46748 | 77.32055 | 17382 ft | 377 kts | 4° |
| 2026-04-23 10:45 | 12.49348 | 77.32241 | 16885 ft | 373 kts | 4° |
| 2026-04-23 10:46 | 12.51923 | 77.32412 | 16395 ft | 369 kts | 4° |
| 2026-04-23 10:46 | 12.54472 | 77.32559 | 15907 ft | 365 kts | 4° |
| 2026-04-23 10:46 | 12.56993 | 77.32687 | 15451 ft | 360 kts | 4° |
| 2026-04-23 10:46 | 12.59471 | 77.32799 | 15097 ft | 353 kts | 5° |
| 2026-04-23 10:47 | 12.61870 | 77.32896 | 14755 ft | 346 kts | 4° |
| 2026-04-23 10:47 | 12.64291 | 77.32976 | 14406 ft | 341 kts | 3° |
| 2026-04-23 10:47 | 12.66640 | 77.33051 | 14061 ft | 336 kts | 4° |
| 2026-04-23 10:47 | 12.68960 | 77.33123 | 13721 ft | 331 kts | 4° |
| 2026-04-23 10:48 | 12.71216 | 77.33186 | 13347 ft | 327 kts | 4° |
| 2026-04-23 10:48 | 12.73506 | 77.33244 | 12963 ft | 323 kts | 4° |
| 2026-04-23 10:48 | 12.75743 | 77.33301 | 12646 ft | 319 kts | 4° |
| 2026-04-23 10:48 | 12.77915 | 77.33354 | 12353 ft | 314 kts | 4° |
| 2026-04-23 10:49 | 12.80110 | 77.33408 | 12057 ft | 310 kts | 4° |
| 2026-04-23 10:49 | 12.82223 | 77.33451 | 11769 ft | 306 kts | 4° |
| 2026-04-23 10:49 | 12.84333 | 77.33498 | 11471 ft | 301 kts | 4° |
| 2026-04-23 10:49 | 12.86420 | 77.33552 | 11188 ft | 298 kts | 4° |
| 2026-04-23 10:50 | 12.88484 | 77.33604 | 10895 ft | 295 kts | 3° |
| 2026-04-23 10:50 | 12.90529 | 77.33649 | 10630 ft | 292 kts | 3° |
| 2026-04-23 10:50 | 12.92551 | 77.33687 | 10354 ft | 290 kts | 4° |
| 2026-04-23 10:50 | 12.94562 | 77.33735 | 10076 ft | 287 kts | 4° |
| 2026-04-23 10:51 | 12.96552 | 77.33777 | 9802 ft | 285 kts | 4° |
| 2026-04-23 10:51 | 12.98528 | 77.33819 | 9500 ft | 283 kts | 4° |
| 2026-04-23 10:51 | 13.00489 | 77.33855 | 9203 ft | 281 kts | 4° |
| 2026-04-23 10:51 | 13.02466 | 77.33897 | 8897 ft | 280 kts | 4° |
| 2026-04-23 10:52 | 13.04407 | 77.33948 | 8617 ft | 278 kts | 4° |
| 2026-04-23 10:52 | 13.06334 | 77.33994 | 8319 ft | 277 kts | 4° |
| 2026-04-23 10:52 | 13.08256 | 77.34029 | 8033 ft | 276 kts | 4° |
| 2026-04-23 10:52 | 13.09521 | 77.34058 | 7840 ft | 274 kts | 4° |
| 2026-04-23 10:54 | 13.16069 | 77.34473 | 6986 ft | 233 kts | 24° |
| 2026-04-23 10:55 | 13.16593 | 77.34709 | 6971 ft | 222 kts | 29° |
| 2026-04-23 10:55 | 13.17842 | 77.35480 | 6982 ft | 203 kts | 38° |
| 2026-04-23 10:55 | 13.18890 | 77.36436 | 6996 ft | 199 kts | 48° |
| 2026-04-23 10:55 | 13.19841 | 77.37455 | 7023 ft | 197 kts | 50° |
| 2026-04-23 10:56 | 13.20606 | 77.38601 | 7005 ft | 195 kts | 67° |
| 2026-04-23 10:56 | 13.20933 | 77.39942 | 7005 ft | 194 kts | 86° |
| 2026-04-23 10:56 | 13.20931 | 77.41316 | 7006 ft | 195 kts | 90° |
| 2026-04-23 10:56 | 13.20923 | 77.42255 | 7006 ft | 195 kts | 90° |
| 2026-04-23 10:57 | 13.20913 | 77.43642 | 7006 ft | 194 kts | 90° |
| 2026-04-23 10:57 | 13.20902 | 77.44995 | 6999 ft | 181 kts | 89° |
| 2026-04-23 10:57 | 13.20890 | 77.46650 | 6875 ft | 173 kts | 90° |
| 2026-04-23 10:57 | 13.20884 | 77.47483 | 6763 ft | 173 kts | 90° |